Time;durP1;ratioP1;P1;durP2;ratioP2;P2;SDS_P1;SDS_P2;PMS_P1;PMS_P2;Temp;Humidity;BMP_temperature;BMP_pressure;BME280_temperature;BME280_humidity;BME280_pressure;Samples;Min_cycle;Max_cycle;Signal;HPM_P1;HPM_P2
2022/10/14 00:01:31;;;;;;;1.77;1.67;;;;;;;11.27;84.27;99940.28;5054637;28;20065;-72
2022/10/14 00:04:00;;;;;;;2.58;1.85;;;;;;;11.29;84.24;99946.22;5054951;28;20041;-73
2022/10/14 00:06:33;;;;;;;2.45;1.83;;;;;;;11.24;84.37;99948.78;5054971;28;20148;-73
2022/10/14 00:09:04;;;;;;;2.00;1.75;;;;;;;11.23;84.29;99946.19;5053441;28;20076;-72
2022/10/14 00:11:34;;;;;;;2.95;2.05;;;;;;;11.25;84.08;99944.53;5054623;28;20394;-73
2022/10/14 00:14:05;;;;;;;;;;;;;;;11.26;84.36;99948.78;5054902;28;20044;-73
2022/10/14 00:16:36;;;;;;;4.22;2.58;;;;;;;11.21;84.11;99937.69;5054505;28;19924;-72
2022/10/14 00:19:06;;;;;;;3.25;2.30;;;;;;;11.23;84.13;99946.19;5054526;28;20124;-72
2022/10/14 00:21:35;;;;;;;3.15;1.90;;;;;;;11.17;84.19;99928.34;5054277;28;20037;-73
2022/10/14 00:24:05;;;;;;;4.25;2.00;;;;;;;11.23;84.00;99946.19;5054341;28;20075;-73
2022/10/14 00:26:37;;;;;;;3.17;2.47;;;;;;;11.21;83.94;99942.81;5054272;28;20052;-72
2022/10/14 00:29:11;;;;;;;3.45;3.15;;;;;;;11.20;84.13;99941.13;5054221;28;20487;-74
2022/10/14 00:31:41;;;;;;;2.10;1.92;;;;;;;11.16;83.97;99941.94;5052861;28;20072;-72
2022/10/14 00:34:11;;;;;;;2.40;2.15;;;;;;;11.12;83.83;99936.00;5054399;28;20405;-73
2022/10/14 00:36:40;;;;;;;1.42;1.23;;;;;;;11.13;83.96;99931.75;5054604;28;20073;-72
2022/10/14 00:39:14;;;;;;;5.22;2.47;;;;;;;11.19;83.94;99942.81;5054081;28;20076;-72
2022/10/14 00:41:44;;;;;;;3.42;2.67;;;;;;;11.16;83.94;99940.25;5053934;28;20059;-72
2022/10/14 00:44:38;;;;;;;16.90;3.30;;;;;;;11.13;83.92;99931.75;5054236;28;20045;-73
2022/10/14 00:47:08;;;;;;;1.75;1.58;;;;;;;11.11;83.71;99928.34;5052444;28;20044;-74
2022/10/14 00:49:42;;;;;;;2.75;1.98;;;;;;;11.13;83.86;99924.09;5053907;28;20053;-73
2022/10/14 00:52:19;;;;;;;2.35;2.15;;;;;;;11.12;83.47;99927.47;5053982;28;20570;-71
2022/10/14 00:54:53;;;;;;;1.58;1.48;;;;;;;11.12;83.99;99925.78;5054140;28;20040;-73
2022/10/14 00:57:23;;;;;;;5.90;4.53;;;;;;;11.11;83.77;99920.69;5052637;28;20449;-74
2022/10/14 00:59:55;;;;;;;4.72;2.47;;;;;;;11.10;83.75;99924.06;5053738;28;20053;-72
2022/10/14 01:02:29;;;;;;;1.85;1.75;;;;;;;11.08;83.88;99918.97;5053538;28;20380;-73
2022/10/14 01:04:58;;;;;;;7.75;3.30;;;;;;;11.07;83.98;99924.91;5053703;28;20052;-72
2022/10/14 01:07:36;;;;;;;5.10;2.85;;;;;;;11.07;83.75;99918.94;5052463;28;20494;-72
2022/10/14 01:10:14;;;;;;;2.92;2.35;;;;;;;11.06;84.05;99927.47;5054177;28;20115;-72
2022/10/14 01:12:55;;;;;;;2.97;1.90;;;;;;;11.07;84.15;99916.41;5052280;28;20079;-73
2022/10/14 01:15:33;;;;;;;4.38;3.28;;;;;;;11.08;84.01;99913.00;5052390;28;20486;-73
2022/10/14 01:18:18;;;;;;;3.67;2.00;;;;;;;11.06;83.85;99912.16;5052815;28;20060;-73
2022/10/14 01:21:07;;;;;;;2.70;2.30;;;;;;;11.05;84.11;99916.41;5052396;28;20372;-73
2022/10/14 01:24:00;;;;;;;3.10;2.80;;;;;;;11.06;84.14;99912.16;5052907;28;20509;-73
2022/10/14 01:26:51;;;;;;;2.22;1.55;;;;;;;11.05;84.23;99905.31;5053753;28;20060;-73
2022/10/14 01:29:42;;;;;;;3.08;1.92;;;;;;;11.06;84.22;99907.03;5053642;28;20447;-72
2022/10/14 01:32:17;;;;;;;3.50;2.55;;;;;;;11.04;84.28;99901.91;5052462;28;20048;-72
2022/10/14 01:34:53;;;;;;;1.13;0.88;;;;;;;11.06;84.29;99901.94;5052139;28;20098;-72
2022/10/14 01:37:26;;;;;;;1.48;1.35;;;;;;;11.06;84.12;99899.38;5052402;28;20095;-72
2022/10/14 01:39:59;;;;;;;2.28;2.08;;;;;;;11.06;84.35;99896.81;5053845;28;20095;-74
2022/10/14 01:42:35;;;;;;;2.20;2.00;;;;;;;11.09;84.53;99896.81;5053291;28;20041;-73
2022/10/14 01:45:09;;;;;;;2.15;1.98;;;;;;;11.08;84.12;99895.97;5053186;28;20402;-74
2022/10/14 01:47:41;;;;;;;4.90;2.13;;;;;;;11.10;84.36;99894.28;5052077;28;20080;-73
2022/10/14 01:50:14;;;;;;;4.55;2.20;;;;;;;11.12;84.38;99896.81;5053239;28;20048;-73
2022/10/14 01:52:49;;;;;;;3.45;2.15;;;;;;;11.11;84.23;99892.56;5053131;28;20603;-72
2022/10/14 01:55:23;;;;;;;2.90;2.63;;;;;;;11.10;84.46;99888.31;5051940;28;20512;-73
2022/10/14 01:57:56;;;;;;;1.63;1.52;;;;;;;11.10;84.28;99898.53;5053424;28;20137;-73
2022/10/14 02:00:26;;;;;;;2.13;1.77;;;;;;;11.02;84.70;99880.63;5035549;28;20136;-72
2022/10/14 02:02:56;;;;;;;2.55;2.35;;;;;;;11.14;84.59;99895.09;5053118;28;20087;-72
2022/10/14 02:05:32;;;;;;;2.35;2.15;;;;;;;11.14;84.74;99887.44;5052983;28;20132;-73
2022/10/14 02:08:10;;;;;;;3.05;2.45;;;;;;;11.15;84.58;99889.16;5053424;28;20124;-72
2022/10/14 02:10:57;;;;;;;2.25;1.63;;;;;;;11.17;84.61;99879.78;5053634;28;20055;-71
2022/10/14 02:13:46;;;;;;;3.92;2.53;;;;;;;11.17;84.64;99880.66;5053239;28;20045;-73
2022/10/14 02:16:24;;;;;;;2.13;1.85;;;;;;;11.20;84.99;99884.91;5051777;28;20522;-73
2022/10/14 02:19:02;;;;;;;4.07;2.35;;;;;;;11.24;84.98;99878.94;5053514;28;20514;-73
2022/10/14 02:21:40;;;;;;;2.05;1.85;;;;;;;11.23;84.85;99874.66;5052035;28;20045;-73
2022/10/14 02:24:30;;;;;;;2.25;1.92;;;;;;;11.29;85.25;99874.69;5052105;28;20232;-72
2022/10/14 02:27:03;;;;;;;3.70;2.53;;;;;;;11.30;85.04;99871.28;5052797;28;20049;-73
2022/10/14 02:29:36;;;;;;;2.28;2.08;;;;;;;11.33;84.93;99876.38;5053138;28;20079;-72
2022/10/14 02:32:07;;;;;;;1.25;1.15;;;;;;;11.35;85.08;99867.84;5053122;28;20041;-73
2022/10/14 02:34:42;;;;;;;3.10;1.92;;;;;;;11.39;85.15;99876.38;5052722;28;20041;-73
2022/10/14 02:37:13;;;;;;;3.85;2.17;;;;;;;11.41;85.18;99872.97;5053937;28;20061;-72
2022/10/14 02:39:46;;;;;;;2.53;2.33;;;;;;;11.42;85.17;99868.72;5056367;28;20140;-72
2022/10/14 02:42:16;;;;;;;3.40;2.03;;;;;;;11.43;85.20;99878.06;5056580;28;20049;-72
2022/10/14 02:44:53;;;;;;;3.78;2.42;;;;;;;11.43;85.22;99868.72;5056321;28;20073;-73
2022/10/14 02:47:22;;;;;;;8.20;3.90;;;;;;;11.37;85.15;99867.88;5054970;28;20049;-73
2022/10/14 02:49:53;;;;;;;1.43;1.33;;;;;;;11.47;85.21;99868.72;5056455;28;20061;-73
2022/10/14 02:52:24;;;;;;;7.15;2.83;;;;;;;11.49;85.03;99874.66;5055214;28;20395;-72
2022/10/14 02:54:54;;;;;;;5.47;2.97;;;;;;;11.50;85.26;99869.53;5055968;28;20049;-72
2022/10/14 02:57:23;;;;;;;1.80;1.65;;;;;;;11.53;85.15;99863.56;5054730;28;20075;-72
2022/10/14 02:59:52;;;;;;;3.00;2.43;;;;;;;11.54;85.18;99870.41;5055973;28;20048;-73
2022/10/14 03:02:20;;;;;;;2.67;2.25;;;;;;;11.55;85.25;99872.94;5054836;28;20037;-71
2022/10/14 03:04:49;;;;;;;4.75;3.13;;;;;;;11.55;85.09;99862.72;5054826;28;20072;-72
2022/10/14 03:07:19;;;;;;;1.02;0.98;;;;;;;11.57;85.20;99871.22;5056041;28;20041;-72
2022/10/14 03:09:52;;;;;;;3.55;2.75;;;;;;;11.62;85.38;99874.63;5055064;28;20033;-73
2022/10/14 03:12:24;;;;;;;1.58;1.08;;;;;;;11.65;85.28;99877.19;5055998;28;20402;-74
2022/10/14 03:14:56;;;;;;;2.38;2.03;;;;;;;11.68;85.34;99876.38;5054506;28;20127;-73
2022/10/14 03:17:27;;;;;;;1.70;1.60;;;;;;;11.68;85.52;99872.13;5055866;28;20060;-73
2022/10/14 03:20:00;;;;;;;2.72;2.53;;;;;;;11.65;85.50;99869.53;5055878;28;20106;-72
2022/10/14 03:22:32;;;;;;;2.92;2.22;;;;;;;11.74;85.52;99879.75;5055824;28;20041;-72
2022/10/14 03:25:01;;;;;;;1.95;1.45;;;;;;;11.76;85.53;99887.41;5054682;28;20079;-72
2022/10/14 03:27:41;;;;;;;2.22;1.88;;;;;;;11.76;85.71;99883.16;5055444;28;20049;-73
2022/10/14 03:30:13;;;;;;;4.75;3.38;;;;;;;11.75;85.72;99870.38;5054553;28;20057;-73
2022/10/14 03:32:57;;;;;;;3.67;2.60;;;;;;;11.80;85.67;99879.75;5055316;28;20053;-72
2022/10/14 03:35:37;;;;;;;3.45;3.15;;;;;;;11.80;85.73;99878.91;5055481;28;20073;-73
2022/10/14 03:38:12;;;;;;;2.03;1.70;;;;;;;11.87;85.70;99886.56;5053981;28;20045;-73
2022/10/14 03:40:42;;;;;;;1.65;1.55;;;;;;;11.88;85.49;99883.13;5055527;28;20049;-73
2022/10/14 03:43:13;;;;;;;3.20;2.85;;;;;;;11.89;85.66;99887.41;5055511;28;20057;-71
2022/10/14 03:45:52;;;;;;;2.95;2.63;;;;;;;11.90;85.74;99886.53;5055392;28;20055;-73
2022/10/14 03:48:24;;;;;;;3.72;3.05;;;;;;;11.91;85.62;99883.13;5054945;28;20044;-73
2022/10/14 03:50:57;;;;;;;3.78;2.95;;;;;;;11.93;85.72;99891.63;5055253;28;20052;-73
2022/10/14 03:53:28;;;;;;;2.70;2.45;;;;;;;11.95;85.86;99887.38;5055441;28;20069;-72
2022/10/14 03:55:57;;;;;;;3.50;2.50;;;;;;;11.94;85.79;99878.00;5053983;28;20049;-72
2022/10/14 03:58:26;;;;;;;2.50;2.30;;;;;;;11.96;85.98;99876.28;5053733;28;20030;-72
2022/10/14 04:01:01;;;;;;;3.63;2.20;;;;;;;12.00;85.89;99872.84;5053775;28;20095;-72
2022/10/14 04:03:41;;;;;;;4.32;1.48;;;;;;;11.99;85.97;99871.19;5054833;28;20495;-72
2022/10/14 04:06:10;;;;;;;6.00;1.98;;;;;;;12.02;85.75;99873.69;5053505;28;20041;-72
2022/10/14 04:08:40;;;;;;;2.55;2.03;;;;;;;12.01;85.87;99866.03;5053413;28;20072;-71
2022/10/14 04:11:25;;;;;;;2.65;2.33;;;;;;;12.05;86.04;99876.25;5055438;28;20049;-72
2022/10/14 04:14:01;;;;;;;4.25;1.85;;;;;;;12.06;86.00;99874.56;5053537;28;20048;-72
2022/10/14 04:16:32;;;;;;;1.88;1.45;;;;;;;12.08;86.04;99875.41;5055154;28;20092;-73
2022/10/14 04:19:06;;;;;;;11.63;1.80;;;;;;;12.05;86.18;99875.41;5053500;28;20391;-73
2022/10/14 04:21:35;;;;;;;2.97;2.75;;;;;;;12.05;85.99;99878.81;5054360;28;20041;-73
2022/10/14 04:24:06;;;;;;;2.50;2.28;;;;;;;12.04;86.22;99874.53;5054657;28;20051;-73
2022/10/14 04:27:02;;;;;;;5.53;2.03;;;;;;;11.89;86.56;99851.59;5051596;28;20066;-72
2022/10/14 04:29:54;;;;;;;3.40;2.92;;;;;;;12.05;86.57;99868.59;5054542;28;20060;-74
2022/10/14 04:32:28;;;;;;;4.40;2.72;;;;;;;12.00;86.61;99857.50;5053545;28;20139;-72
2022/10/14 04:34:56;;;;;;;2.80;1.80;;;;;;;12.08;86.71;99866.00;5054222;28;20037;-72
2022/10/14 04:37:30;;;;;;;1.90;0.93;;;;;;;12.06;86.62;99852.38;5053065;28;20045;-72
2022/10/14 04:40:06;;;;;;;3.00;2.75;;;;;;;12.08;86.54;99860.91;5054319;28;20056;-72
2022/10/14 04:42:41;;;;;;;3.15;1.83;;;;;;;12.08;86.63;99865.16;5053151;28;20060;-72
2022/10/14 04:45:20;;;;;;;3.58;3.08;;;;;;;11.78;86.76;99814.13;5054016;28;20491;-72
2022/10/14 04:47:56;;;;;;;5.50;3.05;;;;;;;12.05;86.77;99860.91;5052766;28;20140;-73
2022/10/14 04:50:27;;;;;;;6.68;2.65;;;;;;;12.07;86.96;99859.19;5054266;28;20072;-72
2022/10/14 04:53:07;;;;;;;3.50;3.20;;;;;;;11.98;87.15;99845.59;5054107;28;20045;-73
2022/10/14 04:55:54;;;;;;;2.92;2.33;;;;;;;12.08;86.97;99866.00;5053796;28;20568;-73
2022/10/14 04:58:24;;;;;;;1.83;1.50;;;;;;;12.09;87.18;99867.69;5052359;28;20063;-74
2022/10/14 05:00:54;;;;;;;;;;;;;;;12.10;87.13;99869.41;5053964;28;20072;-72
2022/10/14 05:03:28;;;;;;;3.40;1.83;;;;;;;12.11;87.39;99875.38;5053539;28;20034;-72
2022/10/14 05:05:57;;;;;;;;;;;;;;;12.11;87.39;99867.72;5053117;28;20509;-72
2022/10/14 05:08:26;;;;;;;5.53;3.88;;;;;;;12.07;87.45;99859.19;5052719;28;19927;-72
2022/10/14 05:10:59;;;;;;;3.28;2.20;;;;;;;12.10;87.36;99859.19;5052663;28;20040;-72
2022/10/14 05:13:43;;;;;;;5.78;2.63;;;;;;;12.06;87.41;99847.28;5054147;28;20115;-73
2022/10/14 05:16:11;;;;;;;3.93;1.53;;;;;;;12.06;87.43;99856.66;5053496;28;20043;-73
2022/10/14 05:18:40;;;;;;;2.10;1.90;;;;;;;12.02;87.60;99847.28;5052598;28;20371;-72
2022/10/14 05:21:11;;;;;;;2.50;2.30;;;;;;;11.96;87.56;99840.47;5053722;28;20076;-72
2022/10/14 05:24:07;;;;;;;2.72;1.90;;;;;;;11.65;87.72;99802.19;5052131;28;20063;-73
2022/10/14 05:26:40;;;;;;;6.82;4.32;;;;;;;11.94;87.51;99842.19;5054430;28;20084;-72
2022/10/14 05:29:12;;;;;;;6.65;5.22;;;;;;;12.00;87.56;99842.16;5053576;28;20045;-72
2022/10/14 05:31:41;;;;;;;11.40;4.72;;;;;;;12.02;87.65;99845.56;5053219;28;20048;-72
2022/10/14 05:34:23;;;;;;;6.00;5.38;;;;;;;12.00;87.63;99846.41;5035724;28;20110;-72
2022/10/14 05:36:52;;;;;;;5.17;3.77;;;;;;;12.04;87.63;99848.13;5052536;28;20103;-73
2022/10/14 05:39:23;;;;;;;6.70;2.90;;;;;;;12.06;87.72;99847.28;5053559;28;20053;-73
2022/10/14 05:41:54;;;;;;;1.90;1.50;;;;;;;12.06;87.95;99852.38;5053139;28;20044;-72
2022/10/14 05:44:26;;;;;;;5.40;3.05;;;;;;;12.08;87.83;99860.91;5052136;28;20132;-72
2022/10/14 05:46:54;;;;;;;7.38;3.00;;;;;;;12.05;87.89;99855.78;5052339;28;20124;-73
2022/10/14 05:49:25;;;;;;;2.42;1.92;;;;;;;12.07;88.12;99853.22;5053139;28;20056;-72
2022/10/14 05:51:57;;;;;;;3.40;3.10;;;;;;;12.06;88.26;99861.75;5052085;28;20037;-72
2022/10/14 05:54:26;;;;;;;2.80;2.00;;;;;;;12.11;88.01;99867.72;5051949;28;20570;-72
2022/10/14 05:56:58;;;;;;;1.92;1.52;;;;;;;12.18;87.93;99868.53;5053128;28;20052;-73
2022/10/14 05:59:28;;;;;;;3.28;2.97;;;;;;;12.18;88.30;99861.72;5051907;28;20045;-72
2022/10/14 06:01:59;;;;;;;3.10;2.13;;;;;;;12.21;88.06;99851.47;5053082;28;20048;-72
2022/10/14 06:04:28;;;;;;;7.30;2.50;;;;;;;12.27;87.97;99855.69;5051848;28;20041;-73
2022/10/14 06:06:58;;;;;;;2.60;2.37;;;;;;;12.26;87.80;99859.94;5051999;28;20079;-72
2022/10/14 06:09:31;;;;;;;3.65;2.78;;;;;;;12.28;87.67;99863.38;5052131;28;20282;-73
2022/10/14 06:12:01;;;;;;;2.67;2.20;;;;;;;12.37;87.70;99865.03;5056076;28;20045;-72
2022/10/14 06:14:30;;;;;;;2.13;1.88;;;;;;;12.38;87.65;99864.19;5055646;28;20057;-72
2022/10/14 06:17:00;;;;;;;1.38;1.23;;;;;;;12.42;87.61;99870.97;5056620;28;20041;-72
2022/10/14 06:19:32;;;;;;;5.85;3.50;;;;;;;12.40;87.49;99852.22;5056987;28;20122;-74
2022/10/14 06:22:01;;;;;;;3.22;2.58;;;;;;;12.52;87.42;99872.63;5055849;28;20115;-73
2022/10/14 06:24:29;;;;;;;6.72;3.30;;;;;;;12.54;87.34;99866.66;5056617;28;20041;-73
2022/10/14 06:26:58;;;;;;;2.97;2.70;;;;;;;12.59;87.42;99856.38;5057131;28;20033;-73
2022/10/14 06:29:31;;;;;;;3.00;2.40;;;;;;;12.64;87.05;99867.44;5056431;28;20043;-73
2022/10/14 06:32:00;;;;;;;3.13;2.50;;;;;;;12.66;87.00;99850.34;5056472;28;20045;-72
2022/10/14 06:34:29;;;;;;;5.68;3.78;;;;;;;12.67;86.92;99859.72;5055559;28;20032;-72
2022/10/14 06:36:58;;;;;;;3.78;3.40;;;;;;;12.64;86.98;99858.03;5056265;28;20570;-73
2022/10/14 06:39:30;;;;;;;5.05;4.00;;;;;;;12.69;86.77;99865.72;5056366;28;20053;-72
2022/10/14 06:41:58;;;;;;;5.85;2.40;;;;;;;12.69;86.69;99868.28;5055903;28;20465;-72
2022/10/14 06:44:29;;;;;;;2.20;2.05;;;;;;;12.74;86.44;99872.47;5056217;28;20124;-72
2022/10/14 06:46:58;;;;;;;1.58;1.48;;;;;;;12.76;86.42;99872.50;5056419;28;20071;-73
2022/10/14 06:49:26;;;;;;;5.22;2.70;;;;;;;12.53;86.68;99825.69;5056693;28;20043;-72
2022/10/14 06:51:55;;;;;;;5.55;2.67;;;;;;;12.88;86.56;99887.78;5056323;28;20410;-74
2022/10/14 06:54:23;;;;;;;2.55;2.00;;;;;;;12.90;87.02;99883.50;5056258;28;20148;-73
2022/10/14 06:56:52;;;;;;;1.98;1.60;;;;;;;12.90;86.67;99880.94;5056525;28;20120;-72
2022/10/14 06:59:21;;;;;;;5.13;2.92;;;;;;;12.93;86.54;99886.03;5056166;28;20045;-74
2022/10/14 07:01:51;;;;;;;2.83;1.98;;;;;;;12.91;86.49;99874.09;5042232;28;20124;-72
2022/10/14 07:04:20;;;;;;;4.80;3.45;;;;;;;13.00;86.25;99876.59;5036125;28;20076;-72
2022/10/14 07:06:50;;;;;;;2.50;2.30;;;;;;;12.98;86.17;99874.03;5036547;28;20108;-72
2022/10/14 07:09:19;;;;;;;4.28;3.90;;;;;;;13.04;86.06;99868.88;5036122;28;20055;-73
2022/10/14 07:11:48;;;;;;;3.97;2.03;;;;;;;13.09;86.09;99867.16;5038850;28;20052;-72
2022/10/14 07:14:16;;;;;;;4.45;2.20;;;;;;;13.17;86.08;99874.78;5036135;28;20041;-72
2022/10/14 07:16:46;;;;;;;5.23;3.00;;;;;;;13.19;86.37;99867.94;5034455;28;20084;-71
2022/10/14 07:19:16;;;;;;;5.40;3.90;;;;;;;13.22;86.12;99868.75;5039609;28;20045;-73
2022/10/14 07:21:45;;;;;;;3.00;2.65;;;;;;;13.16;86.56;99858.56;5033928;28;20140;-73
2022/10/14 07:24:14;;;;;;;4.68;2.83;;;;;;;13.33;86.19;99877.22;5046724;28;20143;-72
2022/10/14 07:26:43;;;;;;;3.40;2.50;;;;;;;13.33;85.97;99866.94;5035793;28;20038;-72
2022/10/14 07:29:11;;;;;;;3.15;2.30;;;;;;;13.36;86.43;99866.06;5035788;28;20479;-73
2022/10/14 07:31:40;;;;;;;2.60;2.15;;;;;;;13.50;86.39;99883.88;5035765;28;20411;-73
2022/10/14 07:34:09;;;;;;;7.32;2.58;;;;;;;13.52;86.01;99879.59;5046436;28;20043;-72
2022/10/14 07:36:40;;;;;;;5.82;2.83;;;;;;;13.59;86.18;99889.78;5055407;28;20576;-71
2022/10/14 07:39:09;;;;;;;1.55;1.45;;;;;;;13.60;86.18;99885.50;5055484;28;20118;-71
2022/10/14 07:41:38;;;;;;;3.70;2.55;;;;;;;13.66;85.71;99880.31;5055162;28;20051;-73
2022/10/14 07:44:08;;;;;;;2.53;2.17;;;;;;;13.68;85.93;99884.56;5055696;28;20049;-72
2022/10/14 07:46:39;;;;;;;1.63;1.52;;;;;;;13.71;85.41;99888.81;5055037;28;20041;-73
2022/10/14 07:49:11;;;;;;;3.08;2.70;;;;;;;13.74;85.29;99894.78;5055288;28;20379;-72
2022/10/14 07:51:42;;;;;;;3.50;2.92;;;;;;;13.76;85.37;99887.91;5055222;28;20045;-73
2022/10/14 07:54:15;;;;;;;3.05;2.38;;;;;;;13.74;85.33;99886.22;5054978;28;20465;-72
2022/10/14 07:56:47;;;;;;;3.00;2.35;;;;;;;13.78;85.30;99891.28;5055064;28;20505;-72
2022/10/14 07:59:17;;;;;;;3.05;2.00;;;;;;;13.81;85.63;99891.28;5046505;28;20048;-71
2022/10/14 08:01:47;;;;;;;2.38;1.85;;;;;;;13.82;85.51;99895.53;5046493;28;20041;-72
2022/10/14 08:04:16;;;;;;;1.17;1.10;;;;;;;13.79;85.41;99884.47;5034757;28;20041;-73
2022/10/14 08:06:47;;;;;;;3.77;2.57;;;;;;;13.86;85.53;99894.66;5035027;28;20080;-73
2022/10/14 08:09:17;;;;;;;2.20;2.00;;;;;;;13.87;85.20;99891.19;5034702;28;20048;-72
2022/10/14 08:11:47;;;;;;;4.00;2.45;;;;;;;13.91;84.67;99897.16;5034712;28;20472;-73
2022/10/14 08:14:17;;;;;;;6.30;3.50;;;;;;;13.62;84.94;99845.31;5034848;28;20056;-72
2022/10/14 08:16:45;;;;;;;5.13;3.45;;;;;;;13.94;84.76;99897.13;5034389;28;20057;-72
2022/10/14 08:19:14;;;;;;;3.93;1.63;;;;;;;13.95;84.19;99898.81;5033345;28;20103;-72
2022/10/14 08:21:43;;;;;;;2.25;2.05;;;;;;;13.97;84.47;99894.50;5036023;28;20298;-74
2022/10/14 08:24:13;;;;;;;1.90;1.67;;;;;;;13.99;83.99;99891.06;5041066;28;20045;-73
2022/10/14 08:26:50;;;;;;;2.40;2.20;;;;;;;14.03;84.09;99887.63;5034299;28;20291;-74
2022/10/14 08:29:21;;;;;;;6.75;2.35;;;;;;;14.07;84.32;99896.97;5034266;28;20033;-72
2022/10/14 08:31:50;;;;;;;3.35;2.20;;;;;;;14.04;84.06;99888.44;5042089;28;20207;-73
2022/10/14 08:34:20;;;;;;;2.63;2.30;;;;;;;14.07;84.12;99888.41;5033921;28;20052;-73
2022/10/14 08:36:49;;;;;;;2.75;2.28;;;;;;;14.11;83.63;99905.47;5036678;28;20087;-73
2022/10/14 08:39:19;;;;;;;1.80;1.48;;;;;;;14.13;83.59;99902.91;5043229;28;20095;-71
2022/10/14 08:42:09;;;;;;;3.33;2.78;;;;;;;14.17;83.60;99897.72;5034174;28;20079;-72
2022/10/14 08:44:45;;;;;;;3.97;2.80;;;;;;;14.26;82.83;99892.47;5034409;28;20044;-73
2022/10/14 08:47:16;;;;;;;13.25;3.25;;;;;;;14.29;82.96;99889.88;5033980;28;20057;-74
2022/10/14 08:50:00;;;;;;;2.95;2.58;;;;;;;14.38;82.91;99889.78;5033984;28;20053;-73
2022/10/14 08:52:34;;;;;;;3.97;2.67;;;;;;;14.47;82.27;99888.78;5046096;28;20063;-70
2022/10/14 08:55:23;;;;;;;1.92;1.77;;;;;;;14.52;81.66;99900.72;5053842;28;20087;-73
2022/10/14 08:57:58;;;;;;;5.88;3.15;;;;;;;14.58;81.76;99897.22;5053626;28;20053;-70
2022/10/14 09:00:30;;;;;;;4.75;3.88;;;;;;;14.59;81.00;99894.63;5051764;28;20443;-72
2022/10/14 09:03:06;;;;;;;3.95;2.80;;;;;;;14.62;81.10;99898.88;5034655;28;20045;-71
2022/10/14 09:05:35;;;;;;;11.07;2.05;;;;;;;14.65;80.75;99906.53;5047155;28;20049;-72
2022/10/14 09:08:05;;;;;;;2.00;1.80;;;;;;;14.65;80.99;99899.69;5053715;28;20059;-71
2022/10/14 09:10:40;;;;;;;3.22;2.47;;;;;;;14.67;80.49;99897.94;5053854;28;20047;-70
2022/10/14 09:13:15;;;;;;;3.75;2.88;;;;;;;14.69;80.45;99906.47;5053770;28;20049;-72
2022/10/14 09:15:46;;;;;;;8.10;3.20;;;;;;;14.70;80.21;99897.91;5053848;28;20486;-74
2022/10/14 09:18:27;;;;;;;5.97;2.40;;;;;;;14.67;80.46;99900.50;5053763;28;20059;-71
2022/10/14 09:20:58;;;;;;;3.03;2.22;;;;;;;14.70;80.20;99894.50;5046839;28;20079;-73
2022/10/14 09:23:28;;;;;;;2.90;2.67;;;;;;;14.71;80.34;99902.16;5043069;28;20064;-72
2022/10/14 09:25:58;;;;;;;;;;;;;;;14.71;79.92;99894.44;5044842;28;20103;-73
2022/10/14 09:28:35;;;;;;;4.45;2.50;;;;;;;14.69;79.19;99885.91;5053718;28;19921;-72
2022/10/14 09:31:18;;;;;;;2.97;2.13;;;;;;;14.73;79.00;99887.56;5111792;27;20369;-72
2022/10/14 09:33:59;;;;;;;6.20;2.58;;;;;;;14.81;78.77;99895.16;5091962;27;20717;-74
2022/10/14 09:36:41;;;;;;;8.15;2.20;;;;;;;14.88;78.43;99891.63;5112498;27;20369;-73
2022/10/14 09:39:23;;;;;;;1.70;1.33;;;;;;;14.90;78.31;99889.88;5090780;27;20382;-71
2022/10/14 09:42:13;;;;;;;2.72;1.88;;;;;;;14.93;77.90;99894.13;5090854;28;20385;-69
2022/10/14 09:45:09;;;;;;;2.92;2.55;;;;;;;14.96;77.35;99896.66;5090917;27;20377;-71
2022/10/14 09:47:55;;;;;;;2.17;1.60;;;;;;;14.90;77.75;99881.34;5132554;27;20169;-72
2022/10/14 09:50:42;;;;;;;1.90;1.45;;;;;;;14.95;78.04;99895.00;5132958;27;20368;-71
2022/10/14 09:53:29;;;;;;;2.67;1.95;;;;;;;14.94;78.22;99895.84;5090995;27;20732;-71
2022/10/14 09:56:10;;;;;;;2.85;2.20;;;;;;;14.97;78.08;99893.25;5112136;27;20372;-71
2022/10/14 09:58:55;;;;;;;2.60;1.55;;;;;;;15.04;78.16;99887.13;5092052;27;20378;-71
2022/10/14 10:01:41;;;;;;;3.60;2.35;;;;;;;15.07;78.66;99884.53;5132347;27;20379;-71
2022/10/14 10:04:33;;;;;;;2.15;1.95;;;;;;;15.12;78.50;99891.28;5132871;27;20375;-71
2022/10/14 10:07:29;;;;;;;3.85;2.00;;;;;;;15.18;78.87;99895.47;5091985;27;20382;-71
2022/10/14 10:10:21;;;;;;;2.88;2.35;;;;;;;15.15;78.95;99882.66;5091458;27;20397;-71
2022/10/14 10:13:02;;;;;;;4.00;2.75;;;;;;;15.15;79.34;99896.38;5091963;27;20820;-70
2022/10/14 10:15:57;;;;;;;5.25;1.92;;;;;;;15.16;79.51;99892.09;5132962;27;20372;-71
2022/10/14 10:18:39;;;;;;;3.30;1.85;;;;;;;15.17;80.21;99886.03;5132523;27;20368;-71
2022/10/14 10:21:24;;;;;;;1.83;1.48;;;;;;;15.21;80.63;99892.88;5086479;27;20402;-71
2022/10/14 10:24:20;;;;;;;4.53;2.58;;;;;;;15.25;80.89;99884.22;5090806;27;20378;-71
2022/10/14 10:27:19;;;;;;;3.63;2.38;;;;;;;15.17;81.14;99873.19;5090667;27;20728;-71
2022/10/14 10:30:21;;;;;;;2.55;2.08;;;;;;;15.24;80.67;99882.50;5090876;27;20397;-71
2022/10/14 10:33:01;;;;;;;3.95;2.80;;;;;;;15.30;80.82;99880.69;5089288;28;20402;-69
2022/10/14 10:35:42;;;;;;;2.25;1.52;;;;;;;15.36;80.72;99874.59;5089236;28;20047;-68
2022/10/14 10:38:22;;;;;;;2.30;1.80;;;;;;;15.45;80.39;99882.19;5089682;28;20040;-71
2022/10/14 10:41:05;;;;;;;2.08;1.85;;;;;;;15.50;80.89;99882.94;5089488;28;20067;-71
2022/10/14 10:43:49;;;;;;;4.20;1.80;;;;;;;15.56;80.37;99874.28;5089961;28;20048;-70
2022/10/14 10:46:50;;;;;;;2.15;1.95;;;;;;;15.60;80.13;99871.63;5090029;28;20072;-71
2022/10/14 10:49:35;;;;;;;2.50;2.30;;;;;;;15.64;79.74;99865.56;5090259;28;20520;-68
2022/10/14 10:52:13;;;;;;;4.93;2.75;;;;;;;15.80;80.13;99866.97;5084650;28;20052;-71
2022/10/14 10:54:55;;;;;;;1.40;1.30;;;;;;;15.86;79.26;99863.44;5089981;28;20601;-71
2022/10/14 10:57:39;;;;;;;2.08;1.85;;;;;;;15.87;78.66;99853.09;5090432;28;20048;-71
2022/10/14 11:00:13;;;;;;;8.43;2.28;;;;;;;15.76;78.15;99842.19;5090783;28;20428;-71
2022/10/14 11:03:10;;;;;;;4.82;3.67;;;;;;;15.85;77.92;99856.59;5090800;28;20405;-71
2022/10/14 11:05:57;;;;;;;4.40;2.80;;;;;;;15.83;77.98;99856.63;5090603;28;20094;-71
2022/10/14 11:14:16;;;;;;;5.18;2.53;;;;;;;15.84;77.39;99848.00;5089640;28;20032;-72
2022/10/14 11:16:54;;;;;;;5.00;2.55;;;;;;;15.76;76.96;99849.91;5089908;28;20090;-70
2022/10/14 11:19:32;;;;;;;;;;;;;;;15.75;77.42;99840.47;5090333;28;20050;-70
2022/10/14 11:22:10;;;;;;;8.02;2.47;;;;;;;15.75;77.25;99837.91;5090185;28;19921;-71
2022/10/14 11:24:46;;;;;;;4.00;2.95;;;;;;;15.76;77.35;99833.59;5090195;28;20048;-71
2022/10/14 11:27:21;;;;;;;3.08;2.78;;;;;;;15.76;77.71;99839.59;5088831;28;20052;-71
2022/10/14 11:30:12;;;;;;;7.20;3.60;;;;;;;15.70;76.92;99839.69;5088629;28;20501;-70
2022/10/14 11:32:56;;;;;;;1.27;1.13;;;;;;;15.67;76.84;99837.19;5090268;28;20075;-71
2022/10/14 11:35:39;;;;;;;1.27;1.17;;;;;;;15.63;76.89;99838.13;5087169;28;20064;-71
2022/10/14 11:38:35;;;;;;;1.45;1.35;;;;;;;15.66;76.89;99840.66;5069366;28;20045;-71
2022/10/14 11:41:12;;;;;;;4.70;2.75;;;;;;;15.70;77.14;99834.56;5062984;28;20123;-72
2022/10/14 11:43:50;;;;;;;2.70;2.05;;;;;;;15.67;76.98;99829.47;5074106;28;20045;-71
2022/10/14 11:46:21;;;;;;;3.75;2.38;;;;;;;15.68;76.73;99820.88;5075483;28;20052;-71
2022/10/14 11:48:54;;;;;;;6.65;2.85;;;;;;;15.70;76.34;99826.84;5075802;28;20040;-70
2022/10/14 11:51:31;;;;;;;3.17;2.22;;;;;;;15.71;76.04;99820.81;5073357;28;20044;-71
2022/10/14 11:54:05;;;;;;;3.40;1.60;;;;;;;15.69;75.70;99817.41;5073050;28;20036;-72
2022/10/14 11:56:41;;;;;;;2.42;2.22;;;;;;;15.63;75.47;99802.09;5076153;28;20044;-71
2022/10/14 11:59:21;;;;;;;4.40;1.90;;;;;;;15.80;75.50;99815.50;5076317;28;20041;-72
2022/10/14 12:01:53;;;;;;;2.08;1.20;;;;;;;15.82;75.20;99818.88;5066563;28;20566;-73
2022/10/14 12:04:28;;;;;;;3.70;2.38;;;;;;;15.79;75.11;99818.06;5056114;28;20041;-71
2022/10/14 12:07:04;;;;;;;2.15;1.73;;;;;;;15.91;75.01;99813.53;5055662;28;20049;-71
2022/10/14 12:09:39;;;;;;;1.73;1.60;;;;;;;15.99;75.47;99811.66;5069440;28;20482;-71
2022/10/14 12:12:12;;;;;;;6.07;1.63;;;;;;;16.07;75.31;99814.94;5056002;28;20048;-71
2022/10/14 12:14:45;;;;;;;2.38;1.73;;;;;;;16.13;74.95;99813.09;5055578;28;20051;-70
2022/10/14 12:17:21;;;;;;;5.07;2.33;;;;;;;16.07;74.64;99814.94;5057798;28;20119;-71